sensor_id;sensor_type;location;lat;lon;timestamp;temperature;humidity
46590;DHT22;32313;48.722;9.362;2023-03-01T00:01:30;-4.20;99.90
46590;DHT22;32313;48.722;9.362;2023-03-01T00:03:56;-4.20;99.90
46590;DHT22;32313;48.722;9.362;2023-03-01T00:06:23;-4.20;99.90
46590;DHT22;32313;48.722;9.362;2023-03-01T00:08:49;-4.20;99.90
46590;DHT22;32313;48.722;9.362;2023-03-01T00:11:21;-4.20;99.90
46590;DHT22;32313;48.722;9.362;2023-03-01T00:13:48;-4.30;99.90
46590;DHT22;32313;48.722;9.362;2023-03-01T00:16:35;-4.30;99.90
46590;DHT22;32313;48.722;9.362;2023-03-01T00:19:01;-4.40;99.90
46590;DHT22;32313;48.722;9.362;2023-03-01T00:21:28;-4.30;99.90
46590;DHT22;32313;48.722;9.362;2023-03-01T00:23:54;-4.30;99.90
46590;DHT22;32313;48.722;9.362;2023-03-01T00:26:21;-4.30;99.90
46590;DHT22;32313;48.722;9.362;2023-03-01T00:28:47;-4.40;99.90
46590;DHT22;32313;48.722;9.362;2023-03-01T00:31:18;-4.40;99.90
46590;DHT22;32313;48.722;9.362;2023-03-01T00:33:44;-4.50;99.90
46590;DHT22;32313;48.722;9.362;2023-03-01T00:36:12;-4.50;99.90
46590;DHT22;32313;48.722;9.362;2023-03-01T00:38:41;-4.60;99.90
46590;DHT22;32313;48.722;9.362;2023-03-01T00:41:09;-4.60;99.90
46590;DHT22;32313;48.722;9.362;2023-03-01T00:43:36;-4.60;99.90
46590;DHT22;32313;48.722;9.362;2023-03-01T00:46:07;-4.70;99.90
46590;DHT22;32313;48.722;9.362;2023-03-01T00:48:34;-4.60;99.90
46590;DHT22;32313;48.722;9.362;2023-03-01T00:51:17;-4.70;99.90
46590;DHT22;32313;48.722;9.362;2023-03-01T00:53:43;-4.70;99.90
46590;DHT22;32313;48.722;9.362;2023-03-01T00:56:11;-4.60;99.90
46590;DHT22;32313;48.722;9.362;2023-03-01T00:58:37;-4.50;99.90
46590;DHT22;32313;48.722;9.362;2023-03-01T01:01:18;-4.40;99.90
46590;DHT22;32313;48.722;9.362;2023-03-01T01:03:50;-4.40;99.90
46590;DHT22;32313;48.722;9.362;2023-03-01T01:06:22;-4.40;99.90
46590;DHT22;32313;48.722;9.362;2023-03-01T01:08:48;-4.50;99.90
46590;DHT22;32313;48.722;9.362;2023-03-01T01:11:14;-4.60;99.90
46590;DHT22;32313;48.722;9.362;2023-03-01T01:13:40;-4.60;99.90
46590;DHT22;32313;48.722;9.362;2023-03-01T01:16:07;-4.70;99.90
46590;DHT22;32313;48.722;9.362;2023-03-01T01:18:33;-4.70;99.90
46590;DHT22;32313;48.722;9.362;2023-03-01T01:21:04;-4.70;99.90
46590;DHT22;32313;48.722;9.362;2023-03-01T01:23:30;-4.70;99.90
46590;DHT22;32313;48.722;9.362;2023-03-01T01:25:55;-4.70;99.90
46590;DHT22;32313;48.722;9.362;2023-03-01T01:28:21;-4.70;99.90
46590;DHT22;32313;48.722;9.362;2023-03-01T01:30:47;-4.60;99.90
46590;DHT22;32313;48.722;9.362;2023-03-01T01:33:12;-4.50;99.90
46590;DHT22;32313;48.722;9.362;2023-03-01T01:35:38;-4.40;99.90
46590;DHT22;32313;48.722;9.362;2023-03-01T01:38:04;-4.30;99.90
46590;DHT22;32313;48.722;9.362;2023-03-01T01:40:29;-4.10;99.90
46590;DHT22;32313;48.722;9.362;2023-03-01T01:42:55;-4.00;99.90
46590;DHT22;32313;48.722;9.362;2023-03-01T01:45:50;-3.90;99.90
46590;DHT22;32313;48.722;9.362;2023-03-01T01:48:21;-3.80;99.90
46590;DHT22;32313;48.722;9.362;2023-03-01T01:50:54;-3.70;99.90
46590;DHT22;32313;48.722;9.362;2023-03-01T01:53:21;-3.60;99.90
46590;DHT22;32313;48.722;9.362;2023-03-01T01:55:51;-3.50;99.90
46590;DHT22;32313;48.722;9.362;2023-03-01T01:58:19;-3.30;99.90
46590;DHT22;32313;48.722;9.362;2023-03-01T02:00:47;-3.20;99.90
46590;DHT22;32313;48.722;9.362;2023-03-01T02:03:17;-3.10;99.90
46590;DHT22;32313;48.722;9.362;2023-03-01T02:05:55;-3.10;99.90
46590;DHT22;32313;48.722;9.362;2023-03-01T02:08:25;-3.00;99.90
46590;DHT22;32313;48.722;9.362;2023-03-01T02:10:52;-2.90;99.90
46590;DHT22;32313;48.722;9.362;2023-03-01T02:13:18;-2.90;99.90
46590;DHT22;32313;48.722;9.362;2023-03-01T02:15:44;-2.90;99.90
46590;DHT22;32313;48.722;9.362;2023-03-01T02:18:12;-2.80;99.90
46590;DHT22;32313;48.722;9.362;2023-03-01T02:23:38;-2.70;99.90
46590;DHT22;32313;48.722;9.362;2023-03-01T02:26:27;-2.60;99.90
46590;DHT22;32313;48.722;9.362;2023-03-01T02:28:55;-2.50;99.90
46590;DHT22;32313;48.722;9.362;2023-03-01T02:31:21;-2.50;99.90
46590;DHT22;32313;48.722;9.362;2023-03-01T02:34:07;-2.30;99.90
46590;DHT22;32313;48.722;9.362;2023-03-01T02:36:53;-2.20;99.90
46590;DHT22;32313;48.722;9.362;2023-03-01T02:39:44;-2.20;99.90
46590;DHT22;32313;48.722;9.362;2023-03-01T02:42:12;-2.00;99.90
46590;DHT22;32313;48.722;9.362;2023-03-01T02:44:38;-1.90;99.90
46590;DHT22;32313;48.722;9.362;2023-03-01T02:47:04;-1.80;99.90
46590;DHT22;32313;48.722;9.362;2023-03-01T02:49:34;-1.60;99.90
46590;DHT22;32313;48.722;9.362;2023-03-01T02:54:57;-1.50;99.90
46590;DHT22;32313;48.722;9.362;2023-03-01T02:57:25;-1.50;99.90
46590;DHT22;32313;48.722;9.362;2023-03-01T02:59:54;-1.40;99.90
46590;DHT22;32313;48.722;9.362;2023-03-01T03:02:23;-1.40;99.90
46590;DHT22;32313;48.722;9.362;2023-03-01T03:05:14;-1.30;99.90
46590;DHT22;32313;48.722;9.362;2023-03-01T03:07:43;-1.30;99.90
46590;DHT22;32313;48.722;9.362;2023-03-01T03:10:15;-1.20;99.90
46590;DHT22;32313;48.722;9.362;2023-03-01T03:12:41;-1.20;99.90
46590;DHT22;32313;48.722;9.362;2023-03-01T03:15:09;-1.10;99.90
46590;DHT22;32313;48.722;9.362;2023-03-01T03:17:36;-1.10;99.90
46590;DHT22;32313;48.722;9.362;2023-03-01T03:20:04;-1.00;99.90
46590;DHT22;32313;48.722;9.362;2023-03-01T03:22:30;-1.00;99.90
46590;DHT22;32313;48.722;9.362;2023-03-01T03:24:56;-1.00;99.90
46590;DHT22;32313;48.722;9.362;2023-03-01T03:27:22;-1.00;99.90
46590;DHT22;32313;48.722;9.362;2023-03-01T03:29:47;-0.90;99.90
46590;DHT22;32313;48.722;9.362;2023-03-01T03:32:13;-1.00;99.90
46590;DHT22;32313;48.722;9.362;2023-03-01T03:34:38;-1.00;99.90
46590;DHT22;32313;48.722;9.362;2023-03-01T03:37:04;-1.00;99.90
46590;DHT22;32313;48.722;9.362;2023-03-01T03:39:50;-1.00;99.90
46590;DHT22;32313;48.722;9.362;2023-03-01T03:42:21;-1.00;99.90
46590;DHT22;32313;48.722;9.362;2023-03-01T03:44:47;-1.00;99.90
46590;DHT22;32313;48.722;9.362;2023-03-01T03:47:13;-1.00;99.90
46590;DHT22;32313;48.722;9.362;2023-03-01T03:49:39;-1.00;99.90
46590;DHT22;32313;48.722;9.362;2023-03-01T03:52:04;-0.90;99.90
46590;DHT22;32313;48.722;9.362;2023-03-01T03:54:30;-0.90;99.90
46590;DHT22;32313;48.722;9.362;2023-03-01T03:56:56;-0.90;99.90
46590;DHT22;32313;48.722;9.362;2023-03-01T03:59:21;-0.90;99.90
46590;DHT22;32313;48.722;9.362;2023-03-01T04:01:47;-0.90;99.90
46590;DHT22;32313;48.722;9.362;2023-03-01T04:04:18;-0.90;99.90
46590;DHT22;32313;48.722;9.362;2023-03-01T04:06:44;-0.90;99.90
46590;DHT22;32313;48.722;9.362;2023-03-01T04:09:09;-0.90;99.90
46590;DHT22;32313;48.722;9.362;2023-03-01T04:11:35;-0.90;99.90
46590;DHT22;32313;48.722;9.362;2023-03-01T04:14:01;-0.90;99.90
46590;DHT22;32313;48.722;9.362;2023-03-01T04:16:26;-0.90;99.90
46590;DHT22;32313;48.722;9.362;2023-03-01T04:18:52;-0.90;99.90
46590;DHT22;32313;48.722;9.362;2023-03-01T04:21:19;-0.90;99.90
46590;DHT22;32313;48.722;9.362;2023-03-01T04:23:45;-1.00;99.90
46590;DHT22;32313;48.722;9.362;2023-03-01T04:26:11;-0.90;99.90
46590;DHT22;32313;48.722;9.362;2023-03-01T04:28:39;-0.90;99.90
46590;DHT22;32313;48.722;9.362;2023-03-01T04:31:16;-0.90;99.90
46590;DHT22;32313;48.722;9.362;2023-03-01T04:33:54;-0.90;99.90
46590;DHT22;32313;48.722;9.362;2023-03-01T04:36:26;-0.90;99.90
46590;DHT22;32313;48.722;9.362;2023-03-01T04:38:52;-0.90;99.90
46590;DHT22;32313;48.722;9.362;2023-03-01T04:41:20;-0.90;99.90
46590;DHT22;32313;48.722;9.362;2023-03-01T04:43:46;-0.90;99.90
46590;DHT22;32313;48.722;9.362;2023-03-01T04:46:14;-0.90;99.90
46590;DHT22;32313;48.722;9.362;2023-03-01T04:48:41;-0.90;99.90
46590;DHT22;32313;48.722;9.362;2023-03-01T04:51:07;-0.90;99.90
46590;DHT22;32313;48.722;9.362;2023-03-01T04:53:34;-0.90;99.90
46590;DHT22;32313;48.722;9.362;2023-03-01T04:56:01;-0.90;99.90
46590;DHT22;32313;48.722;9.362;2023-03-01T04:58:27;-0.90;99.90
46590;DHT22;32313;48.722;9.362;2023-03-01T05:00:54;-0.80;99.90
46590;DHT22;32313;48.722;9.362;2023-03-01T05:03:20;-0.90;99.90
46590;DHT22;32313;48.722;9.362;2023-03-01T05:05:48;-0.90;99.90
46590;DHT22;32313;48.722;9.362;2023-03-01T05:08:14;-0.90;99.90
46590;DHT22;32313;48.722;9.362;2023-03-01T05:10:52;-0.90;99.90
46590;DHT22;32313;48.722;9.362;2023-03-01T05:13:20;-0.80;99.90
46590;DHT22;32313;48.722;9.362;2023-03-01T05:16:00;-0.90;99.90
46590;DHT22;32313;48.722;9.362;2023-03-01T05:18:27;-0.80;99.90
46590;DHT22;32313;48.722;9.362;2023-03-01T05:21:06;-0.80;99.90
46590;DHT22;32313;48.722;9.362;2023-03-01T05:23:32;-0.80;99.90
46590;DHT22;32313;48.722;9.362;2023-03-01T05:26:00;-0.80;99.90
46590;DHT22;32313;48.722;9.362;2023-03-01T05:28:26;-0.80;99.90
46590;DHT22;32313;48.722;9.362;2023-03-01T05:30:54;-0.80;99.90
46590;DHT22;32313;48.722;9.362;2023-03-01T05:33:20;-0.80;99.90
46590;DHT22;32313;48.722;9.362;2023-03-01T05:35:48;-0.70;99.90
46590;DHT22;32313;48.722;9.362;2023-03-01T05:38:14;-0.70;99.90
46590;DHT22;32313;48.722;9.362;2023-03-01T05:40:42;-0.70;99.90
46590;DHT22;32313;48.722;9.362;2023-03-01T05:43:09;-0.70;99.90
46590;DHT22;32313;48.722;9.362;2023-03-01T05:45:36;-0.70;99.90
46590;DHT22;32313;48.722;9.362;2023-03-01T05:48:03;-0.60;99.90
46590;DHT22;32313;48.722;9.362;2023-03-01T05:50:33;-0.50;99.90
46590;DHT22;32313;48.722;9.362;2023-03-01T05:53:10;-0.60;99.90
46590;DHT22;32313;48.722;9.362;2023-03-01T05:55:36;-0.60;99.90
46590;DHT22;32313;48.722;9.362;2023-03-01T05:58:05;-0.50;99.90
46590;DHT22;32313;48.722;9.362;2023-03-01T06:00:32;-0.60;99.90
46590;DHT22;32313;48.722;9.362;2023-03-01T06:02:58;-0.60;99.90
46590;DHT22;32313;48.722;9.362;2023-03-01T06:05:25;-0.50;99.90
46590;DHT22;32313;48.722;9.362;2023-03-01T06:07:51;-0.50;99.90
46590;DHT22;32313;48.722;9.362;2023-03-01T06:10:18;-0.40;99.90
46590;DHT22;32313;48.722;9.362;2023-03-01T06:12:44;-0.50;99.90
46590;DHT22;32313;48.722;9.362;2023-03-01T06:15:12;-0.60;99.90
46590;DHT22;32313;48.722;9.362;2023-03-01T06:17:41;-0.70;99.90
46590;DHT22;32313;48.722;9.362;2023-03-01T06:20:10;-0.80;99.90
46590;DHT22;32313;48.722;9.362;2023-03-01T06:22:37;-0.80;99.90
46590;DHT22;32313;48.722;9.362;2023-03-01T06:25:04;-0.80;99.90
46590;DHT22;32313;48.722;9.362;2023-03-01T06:27:30;-0.90;99.90
46590;DHT22;32313;48.722;9.362;2023-03-01T06:29:55;-0.90;99.90
46590;DHT22;32313;48.722;9.362;2023-03-01T06:32:21;-0.90;99.90
46590;DHT22;32313;48.722;9.362;2023-03-01T06:34:47;-0.80;99.90
46590;DHT22;32313;48.722;9.362;2023-03-01T06:37:12;-0.90;99.90
46590;DHT22;32313;48.722;9.362;2023-03-01T06:39:38;-1.00;99.90
46590;DHT22;32313;48.722;9.362;2023-03-01T06:42:04;-1.00;99.90
46590;DHT22;32313;48.722;9.362;2023-03-01T06:44:30;-1.10;99.90
46590;DHT22;32313;48.722;9.362;2023-03-01T06:46:55;-1.20;99.90
46590;DHT22;32313;48.722;9.362;2023-03-01T06:49:21;-1.20;99.90
46590;DHT22;32313;48.722;9.362;2023-03-01T06:51:47;-1.30;99.90
46590;DHT22;32313;48.722;9.362;2023-03-01T06:54:13;-1.20;99.90
46590;DHT22;32313;48.722;9.362;2023-03-01T06:56:39;-1.20;99.90
46590;DHT22;32313;48.722;9.362;2023-03-01T06:59:04;-1.20;99.90
46590;DHT22;32313;48.722;9.362;2023-03-01T07:01:31;-1.20;99.90
46590;DHT22;32313;48.722;9.362;2023-03-01T07:03:57;-1.10;99.90
46590;DHT22;32313;48.722;9.362;2023-03-01T07:06:23;-1.00;99.90
46590;DHT22;32313;48.722;9.362;2023-03-01T07:08:49;-1.00;99.90
46590;DHT22;32313;48.722;9.362;2023-03-01T07:11:15;-0.90;99.90
46590;DHT22;32313;48.722;9.362;2023-03-01T07:13:41;-0.90;99.90
46590;DHT22;32313;48.722;9.362;2023-03-01T07:16:07;-0.80;99.90
46590;DHT22;32313;48.722;9.362;2023-03-01T07:18:33;-0.40;99.90
46590;DHT22;32313;48.722;9.362;2023-03-01T07:21:04;0.10;99.90
46590;DHT22;32313;48.722;9.362;2023-03-01T07:23:30;0.30;99.90
46590;DHT22;32313;48.722;9.362;2023-03-01T07:25:55;0.60;99.90
46590;DHT22;32313;48.722;9.362;2023-03-01T07:28:23;1.10;99.90
46590;DHT22;32313;48.722;9.362;2023-03-01T07:30:49;1.60;99.90
46590;DHT22;32313;48.722;9.362;2023-03-01T07:33:14;2.10;99.90
46590;DHT22;32313;48.722;9.362;2023-03-01T07:35:40;2.40;99.90
46590;DHT22;32313;48.722;9.362;2023-03-01T07:38:05;2.80;99.90
46590;DHT22;32313;48.722;9.362;2023-03-01T07:40:31;2.90;99.90
46590;DHT22;32313;48.722;9.362;2023-03-01T07:42:58;3.10;99.90
46590;DHT22;32313;48.722;9.362;2023-03-01T07:45:24;3.20;99.90
46590;DHT22;32313;48.722;9.362;2023-03-01T07:47:52;3.30;99.90
46590;DHT22;32313;48.722;9.362;2023-03-01T07:50:18;3.40;99.90
46590;DHT22;32313;48.722;9.362;2023-03-01T07:52:48;3.70;99.90
46590;DHT22;32313;48.722;9.362;2023-03-01T07:55:15;4.00;99.90
46590;DHT22;32313;48.722;9.362;2023-03-01T07:57:41;4.40;99.90
46590;DHT22;32313;48.722;9.362;2023-03-01T08:00:08;4.60;99.90
46590;DHT22;32313;48.722;9.362;2023-03-01T08:02:38;5.00;99.90
46590;DHT22;32313;48.722;9.362;2023-03-01T08:05:06;5.20;99.90
46590;DHT22;32313;48.722;9.362;2023-03-01T08:07:32;5.30;99.90
46590;DHT22;32313;48.722;9.362;2023-03-01T08:09:58;5.60;99.90
46590;DHT22;32313;48.722;9.362;2023-03-01T08:12:23;5.70;99.90
46590;DHT22;32313;48.722;9.362;2023-03-01T08:14:49;5.20;99.90
46590;DHT22;32313;48.722;9.362;2023-03-01T08:17:15;5.00;99.90
46590;DHT22;32313;48.722;9.362;2023-03-01T08:19:40;4.50;99.90
46590;DHT22;32313;48.722;9.362;2023-03-01T08:22:06;4.10;99.90
46590;DHT22;32313;48.722;9.362;2023-03-01T08:24:31;3.70;99.90
46590;DHT22;32313;48.722;9.362;2023-03-01T08:26:57;3.50;99.90
46590;DHT22;32313;48.722;9.362;2023-03-01T08:29:23;4.00;99.90
46590;DHT22;32313;48.722;9.362;2023-03-01T08:31:50;4.40;99.90
46590;DHT22;32313;48.722;9.362;2023-03-01T08:34:17;4.50;99.90
46590;DHT22;32313;48.722;9.362;2023-03-01T08:36:45;4.20;99.90
46590;DHT22;32313;48.722;9.362;2023-03-01T08:39:13;3.80;99.90
46590;DHT22;32313;48.722;9.362;2023-03-01T08:41:39;3.60;99.90
46590;DHT22;32313;48.722;9.362;2023-03-01T08:44:06;4.10;99.90
46590;DHT22;32313;48.722;9.362;2023-03-01T08:46:34;4.70;99.90
46590;DHT22;32313;48.722;9.362;2023-03-01T08:49:14;5.30;99.90
46590;DHT22;32313;48.722;9.362;2023-03-01T08:51:41;5.90;99.90
46590;DHT22;32313;48.722;9.362;2023-03-01T08:54:15;6.40;99.90
46590;DHT22;32313;48.722;9.362;2023-03-01T08:56:41;6.90;99.90
46590;DHT22;32313;48.722;9.362;2023-03-01T08:59:07;7.50;99.90
46590;DHT22;32313;48.722;9.362;2023-03-01T09:01:33;8.00;99.90
46590;DHT22;32313;48.722;9.362;2023-03-01T09:03:59;7.70;99.90
46590;DHT22;32313;48.722;9.362;2023-03-01T09:06:25;7.60;99.90
46590;DHT22;32313;48.722;9.362;2023-03-01T09:08:51;7.70;99.90
46590;DHT22;32313;48.722;9.362;2023-03-01T09:11:20;7.90;99.90
46590;DHT22;32313;48.722;9.362;2023-03-01T09:13:47;8.20;99.90
46590;DHT22;32313;48.722;9.362;2023-03-01T09:16:15;8.30;99.90
46590;DHT22;32313;48.722;9.362;2023-03-01T09:18:43;8.30;99.90
46590;DHT22;32313;48.722;9.362;2023-03-01T09:21:19;8.40;99.90
46590;DHT22;32313;48.722;9.362;2023-03-01T09:23:47;8.70;98.90
46590;DHT22;32313;48.722;9.362;2023-03-01T09:26:16;8.70;98.40
46590;DHT22;32313;48.722;9.362;2023-03-01T09:28:42;8.80;99.10
46590;DHT22;32313;48.722;9.362;2023-03-01T09:31:10;9.20;98.70
46590;DHT22;32313;48.722;9.362;2023-03-01T09:33:38;9.30;97.90
46590;DHT22;32313;48.722;9.362;2023-03-01T09:36:06;9.30;96.50
46590;DHT22;32313;48.722;9.362;2023-03-01T09:38:32;9.50;96.70
46590;DHT22;32313;48.722;9.362;2023-03-01T09:41:00;9.20;96.20
46590;DHT22;32313;48.722;9.362;2023-03-01T09:43:43;9.40;95.50
46590;DHT22;32313;48.722;9.362;2023-03-01T09:46:12;9.40;95.20
46590;DHT22;32313;48.722;9.362;2023-03-01T09:48:46;9.70;94.70
46590;DHT22;32313;48.722;9.362;2023-03-01T09:51:18;10.10;93.70
46590;DHT22;32313;48.722;9.362;2023-03-01T09:53:45;10.40;93.60
46590;DHT22;32313;48.722;9.362;2023-03-01T09:59:11;10.70;91.30
46590;DHT22;32313;48.722;9.362;2023-03-01T10:01:43;10.70;90.60
46590;DHT22;32313;48.722;9.362;2023-03-01T10:04:22;10.70;90.80
46590;DHT22;32313;48.722;9.362;2023-03-01T10:09:45;11.00;89.60
46590;DHT22;32313;48.722;9.362;2023-03-01T10:12:18;11.10;87.20
46590;DHT22;32313;48.722;9.362;2023-03-01T10:15:00;10.90;86.10
46590;DHT22;32313;48.722;9.362;2023-03-01T10:17:50;11.00;86.80
46590;DHT22;32313;48.722;9.362;2023-03-01T10:22:45;11.60;85.60
46590;DHT22;32313;48.722;9.362;2023-03-01T10:25:20;11.70;84.90
46590;DHT22;32313;48.722;9.362;2023-03-01T10:27:54;11.90;84.60
46590;DHT22;32313;48.722;9.362;2023-03-01T10:30:28;12.20;83.10
46590;DHT22;32313;48.722;9.362;2023-03-01T10:32:56;12.50;82.40
46590;DHT22;32313;48.722;9.362;2023-03-01T10:35:26;12.60;78.80
46590;DHT22;32313;48.722;9.362;2023-03-01T10:38:12;12.70;79.10
46590;DHT22;32313;48.722;9.362;2023-03-01T10:41:00;12.80;78.10
46590;DHT22;32313;48.722;9.362;2023-03-01T10:43:49;12.40;77.20
46590;DHT22;32313;48.722;9.362;2023-03-01T10:46:36;12.30;74.60
46590;DHT22;32313;48.722;9.362;2023-03-01T10:51:41;12.70;77.80
46590;DHT22;32313;48.722;9.362;2023-03-01T10:54:27;13.00;76.70
46590;DHT22;32313;48.722;9.362;2023-03-01T10:56:59;13.10;74.60
46590;DHT22;32313;48.722;9.362;2023-03-01T10:59:30;13.00;75.10
46590;DHT22;32313;48.722;9.362;2023-03-01T11:02:17;13.20;73.00
46590;DHT22;32313;48.722;9.362;2023-03-01T11:08:07;13.20;70.50
46590;DHT22;32313;48.722;9.362;2023-03-01T11:10:35;13.40;73.00
46590;DHT22;32313;48.722;9.362;2023-03-01T11:13:16;13.60;72.10
46590;DHT22;32313;48.722;9.362;2023-03-01T11:15:43;13.80;70.50
46590;DHT22;32313;48.722;9.362;2023-03-01T11:18:23;13.90;72.30
46590;DHT22;32313;48.722;9.362;2023-03-01T11:20:53;13.80;68.70
46590;DHT22;32313;48.722;9.362;2023-03-01T11:23:20;13.50;69.10
46590;DHT22;32313;48.722;9.362;2023-03-01T11:25:55;13.70;70.40
46590;DHT22;32313;48.722;9.362;2023-03-01T11:28:22;13.90;66.90
46590;DHT22;32313;48.722;9.362;2023-03-01T11:33:24;13.80;66.70
46590;DHT22;32313;48.722;9.362;2023-03-01T11:36:22;14.40;66.90
46590;DHT22;32313;48.722;9.362;2023-03-01T11:38:50;14.60;64.30
46590;DHT22;32313;48.722;9.362;2023-03-01T11:41:34;14.20;64.40
46590;DHT22;32313;48.722;9.362;2023-03-01T11:44:08;14.30;64.30
46590;DHT22;32313;48.722;9.362;2023-03-01T11:49:37;15.20;63.80
46590;DHT22;32313;48.722;9.362;2023-03-01T11:55:55;15.50;64.70
46590;DHT22;32313;48.722;9.362;2023-03-01T12:09:24;15.50;60.40
46590;DHT22;32313;48.722;9.362;2023-03-01T12:18:37;16.00;60.30
46590;DHT22;32313;48.722;9.362;2023-03-01T12:21:42;16.00;60.40
46590;DHT22;32313;48.722;9.362;2023-03-01T12:27:11;15.90;59.30
46590;DHT22;32313;48.722;9.362;2023-03-01T12:37:29;16.10;58.00
46590;DHT22;32313;48.722;9.362;2023-03-01T12:46:06;15.90;58.20
46590;DHT22;32313;48.722;9.362;2023-03-01T12:49:08;15.90;59.50
46590;DHT22;32313;48.722;9.362;2023-03-01T12:51:37;15.90;59.90
46590;DHT22;32313;48.722;9.362;2023-03-01T12:54:20;15.90;60.30
46590;DHT22;32313;48.722;9.362;2023-03-01T12:56:48;16.10;59.70
46590;DHT22;32313;48.722;9.362;2023-03-01T13:04:37;15.80;59.70
46590;DHT22;32313;48.722;9.362;2023-03-01T13:07:40;16.10;58.90
46590;DHT22;32313;48.722;9.362;2023-03-01T13:10:29;16.20;59.20
46590;DHT22;32313;48.722;9.362;2023-03-01T13:23:29;16.20;57.50
46590;DHT22;32313;48.722;9.362;2023-03-01T13:28:47;15.80;57.20
46590;DHT22;32313;48.722;9.362;2023-03-01T13:33:47;15.20;59.70
46590;DHT22;32313;48.722;9.362;2023-03-01T13:44:35;15.40;57.70
46590;DHT22;32313;48.722;9.362;2023-03-01T13:47:16;15.20;58.90
46590;DHT22;32313;48.722;9.362;2023-03-01T13:52:45;14.80;58.60
46590;DHT22;32313;48.722;9.362;2023-03-01T13:57:44;15.20;57.90
46590;DHT22;32313;48.722;9.362;2023-03-01T14:00:35;15.60;58.80
46590;DHT22;32313;48.722;9.362;2023-03-01T14:03:11;15.70;58.10
46590;DHT22;32313;48.722;9.362;2023-03-01T14:05:40;15.50;58.10
46590;DHT22;32313;48.722;9.362;2023-03-01T14:08:19;15.40;57.70
46590;DHT22;32313;48.722;9.362;2023-03-01T14:19:30;15.10;58.80
46590;DHT22;32313;48.722;9.362;2023-03-01T14:24:40;14.70;58.90
46590;DHT22;32313;48.722;9.362;2023-03-01T14:27:13;14.70;58.20
46590;DHT22;32313;48.722;9.362;2023-03-01T14:29:40;14.20;58.40
46590;DHT22;32313;48.722;9.362;2023-03-01T14:32:21;14.10;59.00
46590;DHT22;32313;48.722;9.362;2023-03-01T14:34:50;14.00;59.70
46590;DHT22;32313;48.722;9.362;2023-03-01T14:37:25;14.10;58.80
46590;DHT22;32313;48.722;9.362;2023-03-01T14:39:52;13.90;60.10
46590;DHT22;32313;48.722;9.362;2023-03-01T14:42:20;13.70;59.70
46590;DHT22;32313;48.722;9.362;2023-03-01T14:44:53;13.60;60.30
46590;DHT22;32313;48.722;9.362;2023-03-01T14:47:29;13.70;60.00
46590;DHT22;32313;48.722;9.362;2023-03-01T14:52:44;13.20;61.40
46590;DHT22;32313;48.722;9.362;2023-03-01T14:55:20;12.30;62.50
46590;DHT22;32313;48.722;9.362;2023-03-01T14:57:50;11.60;64.10
46590;DHT22;32313;48.722;9.362;2023-03-01T15:00:22;11.00;65.10
46590;DHT22;32313;48.722;9.362;2023-03-01T15:02:51;10.60;66.70
46590;DHT22;32313;48.722;9.362;2023-03-01T15:05:27;10.50;67.60
46590;DHT22;32313;48.722;9.362;2023-03-01T15:07:54;10.10;67.80
46590;DHT22;32313;48.722;9.362;2023-03-01T15:10:23;9.90;70.10
46590;DHT22;32313;48.722;9.362;2023-03-01T15:12:49;9.70;70.00
46590;DHT22;32313;48.722;9.362;2023-03-01T15:15:32;9.30;70.70
46590;DHT22;32313;48.722;9.362;2023-03-01T15:18:15;9.10;71.30
46590;DHT22;32313;48.722;9.362;2023-03-01T15:20:42;9.00;72.20
46590;DHT22;32313;48.722;9.362;2023-03-01T15:25:46;8.90;72.20
46590;DHT22;32313;48.722;9.362;2023-03-01T15:28:19;9.10;72.50
46590;DHT22;32313;48.722;9.362;2023-03-01T15:30:51;9.20;72.10
46590;DHT22;32313;48.722;9.362;2023-03-01T15:35:51;9.20;71.80
46590;DHT22;32313;48.722;9.362;2023-03-01T15:38:35;9.40;71.00
46590;DHT22;32313;48.722;9.362;2023-03-01T15:41:19;9.60;70.90
46590;DHT22;32313;48.722;9.362;2023-03-01T15:43:46;9.70;70.30
46590;DHT22;32313;48.722;9.362;2023-03-01T15:48:46;9.40;71.50
46590;DHT22;32313;48.722;9.362;2023-03-01T15:51:13;9.20;72.40
46590;DHT22;32313;48.722;9.362;2023-03-01T15:53:40;9.20;72.30
46590;DHT22;32313;48.722;9.362;2023-03-01T15:56:05;9.30;72.40
46590;DHT22;32313;48.722;9.362;2023-03-01T15:58:33;9.30;71.80
46590;DHT22;32313;48.722;9.362;2023-03-01T16:00:59;9.30;71.50
46590;DHT22;32313;48.722;9.362;2023-03-01T16:03:24;9.10;71.60
46590;DHT22;32313;48.722;9.362;2023-03-01T16:05:50;8.70;72.60
46590;DHT22;32313;48.722;9.362;2023-03-01T16:08:17;8.30;73.50
46590;DHT22;32313;48.722;9.362;2023-03-01T16:10:44;8.00;74.80
46590;DHT22;32313;48.722;9.362;2023-03-01T16:13:11;7.70;75.10
46590;DHT22;32313;48.722;9.362;2023-03-01T16:15:37;7.50;76.30
46590;DHT22;32313;48.722;9.362;2023-03-01T16:18:04;7.30;76.80
46590;DHT22;32313;48.722;9.362;2023-03-01T16:20:35;7.10;77.60
46590;DHT22;32313;48.722;9.362;2023-03-01T16:23:04;6.90;77.50
46590;DHT22;32313;48.722;9.362;2023-03-01T16:25:31;6.80;78.60
46590;DHT22;32313;48.722;9.362;2023-03-01T16:27:57;6.60;78.90
46590;DHT22;32313;48.722;9.362;2023-03-01T16:30:26;6.50;78.90
46590;DHT22;32313;48.722;9.362;2023-03-01T16:32:52;6.30;79.40
46590;DHT22;32313;48.722;9.362;2023-03-01T16:35:19;6.20;79.90
46590;DHT22;32313;48.722;9.362;2023-03-01T16:37:46;6.10;80.20
46590;DHT22;32313;48.722;9.362;2023-03-01T16:40:26;5.90;80.00
46590;DHT22;32313;48.722;9.362;2023-03-01T16:42:52;5.70;80.70
46590;DHT22;32313;48.722;9.362;2023-03-01T16:45:19;5.60;81.40
46590;DHT22;32313;48.722;9.362;2023-03-01T16:47:45;5.40;82.10
46590;DHT22;32313;48.722;9.362;2023-03-01T16:50:11;5.30;82.20
46590;DHT22;32313;48.722;9.362;2023-03-01T16:52:37;5.20;82.40
46590;DHT22;32313;48.722;9.362;2023-03-01T16:55:04;5.10;82.70
46590;DHT22;32313;48.722;9.362;2023-03-01T16:57:31;5.00;83.30
46590;DHT22;32313;48.722;9.362;2023-03-01T16:59:58;5.00;83.60
46590;DHT22;32313;48.722;9.362;2023-03-01T17:02:24;4.90;83.50
46590;DHT22;32313;48.722;9.362;2023-03-01T17:04:54;4.80;84.00
46590;DHT22;32313;48.722;9.362;2023-03-01T17:07:20;4.70;84.10
46590;DHT22;32313;48.722;9.362;2023-03-01T17:09:46;4.50;84.30
46590;DHT22;32313;48.722;9.362;2023-03-01T17:12:12;4.50;84.50
46590;DHT22;32313;48.722;9.362;2023-03-01T17:14:38;4.30;84.40
46590;DHT22;32313;48.722;9.362;2023-03-01T17:17:07;4.20;85.50
46590;DHT22;32313;48.722;9.362;2023-03-01T17:19:33;4.00;85.80
46590;DHT22;32313;48.722;9.362;2023-03-01T17:22:02;3.80;86.00
46590;DHT22;32313;48.722;9.362;2023-03-01T17:24:27;3.60;86.00
46590;DHT22;32313;48.722;9.362;2023-03-01T17:26:56;3.40;86.30
46590;DHT22;32313;48.722;9.362;2023-03-01T17:29:22;3.30;87.10
46590;DHT22;32313;48.722;9.362;2023-03-01T17:31:48;3.20;87.50
46590;DHT22;32313;48.722;9.362;2023-03-01T17:34:13;3.20;88.70
46590;DHT22;32313;48.722;9.362;2023-03-01T17:36:40;3.20;88.10
46590;DHT22;32313;48.722;9.362;2023-03-01T17:39:11;3.10;88.30
46590;DHT22;32313;48.722;9.362;2023-03-01T17:41:37;3.00;88.50
46590;DHT22;32313;48.722;9.362;2023-03-01T17:44:03;2.90;89.20
46590;DHT22;32313;48.722;9.362;2023-03-01T17:46:28;2.80;89.60
46590;DHT22;32313;48.722;9.362;2023-03-01T17:48:54;2.80;89.20
46590;DHT22;32313;48.722;9.362;2023-03-01T17:51:20;2.70;90.00